Time;durP1;ratioP1;P1;durP2;ratioP2;P2;SDS_P1;SDS_P2;PMS_P1;PMS_P2;Temp;Humidity;BMP_temperature;BMP_pressure;BME280_temperature;BME280_humidity;BME280_pressure;Samples;Min_cycle;Max_cycle;Signal;HPM_P1;HPM_P2
2022/03/29 00:01:50;;;;;;;4.95;2.03;;;;;;;-1.59;64.13;101092.09;10343896;28;20080;-85
2022/03/29 00:06:52;;;;;;;8.57;2.08;;;;;;;-1.06;64.33;101213.84;10373978;28;20245;-84
2022/03/29 00:11:53;;;;;;;5.32;2.30;;;;;;;-2.86;64.82;100908.78;10373383;28;20034;-84
2022/03/29 00:16:53;;;;;;;7.65;2.40;;;;;;;-0.57;64.81;101295.03;10373631;28;20053;-84
2022/03/29 00:21:54;;;;;;;5.90;1.70;;;;;;;-0.81;64.87;101238.78;10373195;28;20096;-84
2022/03/29 00:26:55;;;;;;;8.27;2.00;;;;;;;-0.84;64.75;101267.59;10372484;28;20053;-83
2022/03/29 00:31:56;;;;;;;7.30;1.85;;;;;;;-1.23;65.05;101209.41;10373212;28;20386;-85
2022/03/29 00:36:57;;;;;;;3.75;1.58;;;;;;;-1.63;64.95;101124.44;10372863;28;20092;-85
2022/03/29 00:41:58;;;;;;;3.40;1.60;;;;;;;-1.02;64.53;101199.75;10373096;28;20034;-85
2022/03/29 00:47:00;;;;;;;5.45;1.77;;;;;;;-1.45;64.34;101128.78;10373309;28;20037;-84
2022/03/29 00:52:03;;;;;;;4.70;1.90;;;;;;;-0.62;64.71;101263.06;10370761;28;20069;-86
2022/03/29 00:57:05;;;;;;;8.15;1.70;;;;;;;-1.40;64.60;101152.88;10371792;28;20061;-87
2022/03/29 01:02:07;;;;;;;8.35;2.38;;;;;;;-1.15;65.37;101222.09;10372558;28;20041;-86
2022/03/29 01:07:08;;;;;;;4.78;2.22;;;;;;;-1.18;65.64;101186.59;10372039;28;20128;-87
2022/03/29 01:12:09;;;;;;;5.40;2.20;;;;;;;-0.80;65.07;101256.13;10379055;28;20060;-84
2022/03/29 01:22:33;;;;;;;5.20;1.75;;;;;;;-1.12;65.81;101239.38;10380648;28;20071;-84
2022/03/29 01:27:34;;;;;;;9.02;1.95;;;;;;;-1.32;65.62;101217.66;10380383;28;20533;-85
2022/03/29 01:32:38;;;;;;;6.30;2.17;;;;;;;-1.53;65.90;101235.13;10379503;28;20045;-86
2022/03/29 01:37:39;;;;;;;7.28;2.25;;;;;;;-1.56;67.42;101232.66;10378708;28;20494;-85
2022/03/29 01:42:54;;;;;;;7.75;2.33;;;;;;;-1.42;67.22;101232.03;10378753;28;20103;-86
2022/03/29 01:47:55;;;;;;;4.57;2.03;;;;;;;-2.20;66.91;101113.97;10378417;28;20097;-86
2022/03/29 01:52:56;;;;;;;7.28;2.03;;;;;;;-1.35;67.06;101238.66;10377726;28;20880;-83
2022/03/29 01:57:57;;;;;;;7.88;2.15;;;;;;;-1.92;66.62;101201.25;10377402;28;20034;-84
2022/03/29 02:02:59;;;;;;;16.15;2.70;;;;;;;-2.33;67.34;101129.28;10379484;28;20045;-85
2022/03/29 02:08:01;;;;;;;5.15;2.78;;;;;;;-1.62;68.50;101220.75;10378278;28;20040;-84
2022/03/29 02:13:03;;;;;;;6.10;3.00;;;;;;;-1.46;67.75;101223.53;10377798;28;20034;-85
2022/03/29 02:18:05;;;;;;;5.03;2.53;;;;;;;-2.33;66.80;101123.22;10376261;28;20052;-84
2022/03/29 02:23:09;;;;;;;13.05;3.05;;;;;;;-1.71;67.81;101220.31;10376399;28;20173;-84
2022/03/29 02:28:09;;;;;;;9.60;3.33;;;;;;;-2.34;68.25;101096.34;10376689;28;20041;-84
2022/03/29 02:33:10;;;;;;;10.70;3.33;;;;;;;-2.27;68.28;101107.34;10357744;28;20049;-83
2022/03/29 02:38:12;;;;;;;8.77;3.85;;;;;;;-4.28;67.25;100774.63;10373077;28;20038;-83
2022/03/29 02:43:13;;;;;;;10.43;3.65;;;;;;;-2.24;67.61;101177.47;10383673;28;20120;-84
2022/03/29 02:48:15;;;;;;;9.60;4.00;;;;;;;-2.16;67.22;101216.19;10386166;28;20038;-85
2022/03/29 02:53:16;;;;;;;9.38;3.83;;;;;;;-3.69;67.83;100974.63;10386677;28;20046;-85
2022/03/29 02:58:17;;;;;;;9.25;3.63;;;;;;;-2.89;68.75;101109.09;10385428;28;20115;-84
2022/03/29 03:03:19;;;;;;;8.85;3.70;;;;;;;-4.52;68.63;100808.44;10384767;28;20498;-84
2022/03/29 03:08:19;;;;;;;9.55;3.47;;;;;;;-1.97;68.49;101146.81;10372631;28;20044;-83
2022/03/29 03:13:20;;;;;;;8.10;3.47;;;;;;;-2.93;68.01;100899.56;10384126;28;20041;-81
2022/03/29 03:18:21;;;;;;;7.80;3.35;;;;;;;-1.16;66.44;101037.91;10384264;28;20054;-80
2022/03/29 03:23:22;;;;;;;9.55;3.10;;;;;;;-0.33;65.28;101010.16;10384496;28;20083;-83
2022/03/29 03:28:23;;;;;;;10.25;3.40;;;;;;;1.27;63.57;101188.66;10339693;28;20058;-84
2022/03/29 03:33:24;;;;;;;13.55;3.30;;;;;;;0.30;62.67;100989.31;10328753;28;20046;-83
2022/03/29 03:38:24;;;;;;;7.68;2.70;;;;;;;1.66;62.65;101179.44;10330075;28;20046;-84
2022/03/29 03:43:25;;;;;;;9.70;3.00;;;;;;;2.14;61.63;101201.03;10332768;28;20042;-83
2022/03/29 03:48:26;;;;;;;10.02;3.05;;;;;;;2.27;61.45;101199.38;10333129;28;20413;-80
2022/03/29 03:53:27;;;;;;;10.90;3.47;;;;;;;2.60;59.25;101192.94;10333947;28;20049;-80
2022/03/29 03:58:28;;;;;;;7.15;2.55;;;;;;;3.37;58.55;101151.28;10340202;28;20034;-78
2022/03/29 04:03:29;;;;;;;9.32;2.63;;;;;;;3.31;58.52;101042.22;10354804;28;20050;-77
2022/03/29 04:08:30;;;;;;;6.35;2.15;;;;;;;3.63;57.96;100997.97;10381391;28;20406;-78
2022/03/29 04:13:31;;;;;;;12.90;2.42;;;;;;;4.92;56.70;101099.22;10378645;28;20544;-77
2022/03/29 04:18:32;;;;;;;8.02;2.35;;;;;;;5.29;55.96;101051.69;10381528;28;20097;-81
2022/03/29 04:23:33;;;;;;;12.10;2.05;;;;;;;6.24;55.07;101159.56;10375517;28;20498;-77
2022/03/29 04:28:33;;;;;;;7.47;2.13;;;;;;;5.91;54.12;101064.44;10366207;28;20053;-77
2022/03/29 04:33:35;;;;;;;20.67;2.15;;;;;;;6.75;53.23;101180.16;10378430;28;20056;-76
2022/03/29 04:38:36;;;;;;;7.13;2.30;;;;;;;6.20;52.98;101064.00;10377880;28;20048;-90
2022/03/29 04:43:37;;;;;;;12.55;2.63;;;;;;;5.95;51.14;101020.22;10381939;28;20045;-75
2022/03/29 04:48:44;;;;;;;5.22;1.80;;;;;;;6.31;49.45;101121.16;10374838;28;20042;-77
2022/03/29 04:53:45;;;;;;;11.35;2.00;;;;;;;5.30;50.40;101013.84;10378167;28;20399;-75
2022/03/29 04:58:46;;;;;;;7.03;1.83;;;;;;;5.67;50.15;101137.53;10371263;28;20038;-74
2022/03/29 05:03:47;;;;;;;6.65;1.55;;;;;;;5.64;49.37;101114.03;10380114;28;20413;-74
2022/03/29 05:08:48;;;;;;;4.97;1.90;;;;;;;5.43;49.42;101019.00;10360404;28;20128;-72
2022/03/29 05:13:49;;;;;;;8.63;1.80;;;;;;;6.14;48.52;101104.03;10334725;28;20153;-77
2022/03/29 05:18:51;;;;;;;6.57;2.00;;;;;;;6.26;48.77;101079.31;10330121;28;20062;-72
2022/03/29 05:23:52;;;;;;;6.43;1.60;;;;;;;6.13;48.57;101015.28;10341108;28;20092;-73
2022/03/29 05:28:53;;;;;;;5.18;1.45;;;;;;;6.96;47.80;101083.31;10330768;28;20043;-72
2022/03/29 05:33:53;;;;;;;6.57;1.75;;;;;;;7.12;47.42;101048.56;10349353;28;20045;-76
2022/03/29 05:38:55;;;;;;;5.82;1.60;;;;;;;7.85;46.36;101125.25;10343577;28;20042;-75
2022/03/29 05:43:56;;;;;;;6.43;1.70;;;;;;;6.82;46.46;100882.91;10330635;28;20042;-74
2022/03/29 05:48:57;;;;;;;6.13;1.38;;;;;;;7.15;45.71;100863.34;10329898;28;20450;-76
2022/03/29 05:53:59;;;;;;;3.83;1.40;;;;;;;7.71;44.75;100915.69;10333858;28;20479;-77
2022/03/29 05:59:00;;;;;;;8.95;1.50;;;;;;;8.49;44.73;100986.44;10348810;28;20080;-78
2022/03/29 06:04:06;;;;;;;11.80;2.03;;;;;;;9.23;44.13;101034.38;10338156;28;20049;-75
2022/03/29 06:09:07;;;;;;;8.15;1.33;;;;;;;10.02;43.82;101095.03;10347943;28;20054;-80
2022/03/29 06:14:10;;;;;;;8.95;1.27;;;;;;;10.39;43.68;101080.91;10342555;28;20055;-73
2022/03/29 06:19:11;;;;;;;10.32;1.33;;;;;;;10.30;42.50;101011.91;10347851;28;20058;-72
2022/03/29 06:24:12;;;;;;;5.20;1.50;;;;;;;10.12;41.63;100933.03;10336549;28;20046;-74
2022/03/29 06:29:13;;;;;;;4.80;1.33;;;;;;;10.38;40.60;100948.25;10340592;28;20041;-73
2022/03/29 06:34:13;;;;;;;6.07;1.88;;;;;;;10.48;40.27;100904.69;10348757;28;20057;-71
2022/03/29 06:39:14;;;;;;;8.35;1.38;;;;;;;9.78;40.02;100742.66;10365999;28;20041;-74
2022/03/29 06:44:17;;;;;;;7.50;1.20;;;;;;;12.03;39.74;101045.81;10354781;28;20042;-75
2022/03/29 06:49:18;;;;;;;5.70;1.30;;;;;;;11.14;38.90;100843.97;10365810;28;20045;-73
2022/03/29 06:54:19;;;;;;;6.38;1.05;;;;;;;12.19;36.69;100961.63;10376121;28;20073;-77
2022/03/29 06:59:20;;;;;;;3.83;1.05;;;;;;;12.84;36.08;101041.66;10375945;28;20045;-72
2022/03/29 07:04:21;;;;;;;7.53;1.15;;;;;;;12.95;35.08;101041.34;10374741;28;20498;-73
2022/03/29 07:14:41;;;;;;;4.63;1.30;;;;;;;13.19;33.00;101013.81;10375478;28;20104;-74
2022/03/29 07:19:42;;;;;;;3.88;1.27;;;;;;;13.50;33.07;101010.47;10374240;28;20477;-73
2022/03/29 07:24:43;;;;;;;4.38;1.02;;;;;;;13.51;32.45;100961.41;10375135;28;20510;-72
2022/03/29 07:29:44;;;;;;;6.13;1.60;;;;;;;13.89;31.98;100997.13;10375676;28;20061;-72
2022/03/29 07:34:44;;;;;;;2.83;1.17;;;;;;;13.55;31.38;100898.66;10375025;28;20042;-73
2022/03/29 07:39:46;;;;;;;7.95;1.10;;;;;;;12.79;30.07;100724.88;10374330;28;20045;-71
2022/03/29 07:44:49;;;;;;;6.70;0.73;;;;;;;14.21;29.66;100933.00;10374619;28;20042;-72
2022/03/29 07:49:50;;;;;;;7.93;0.90;;;;;;;13.94;29.68;100881.78;10374352;28;20070;-72
2022/03/29 07:54:51;;;;;;;3.17;1.02;;;;;;;13.47;29.50;100790.09;10373001;28;20077;-72
2022/03/29 07:59:52;;;;;;;3.88;0.80;;;;;;;14.54;29.41;100931.81;10373617;28;20037;-72
2022/03/29 08:04:53;;;;;;;3.75;0.80;;;;;;;13.42;29.22;100692.88;10373834;28;20041;-74
2022/03/29 08:09:54;;;;;;;2.50;0.95;;;;;;;15.15;29.07;100933.56;10373130;28;20045;-73
2022/03/29 08:14:55;;;;;;;7.20;0.85;;;;;;;14.16;28.34;100752.69;10373567;28;20042;-74
2022/03/29 08:19:55;;;;;;;3.53;0.85;;;;;;;15.01;27.89;100847.75;10373392;28;20058;-71
2022/03/29 08:24:56;;;;;;;1.42;0.63;;;;;;;15.22;26.91;100881.78;10373357;28;20530;-72
2022/03/29 08:29:57;;;;;;;3.40;0.88;;;;;;;15.11;27.26;100811.88;10373540;28;20046;-72
2022/03/29 08:34:59;;;;;;;3.15;0.70;;;;;;;15.28;26.52;100814.13;10373373;28;20394;-73
2022/03/29 08:40:01;;;;;;;2.95;0.80;;;;;;;15.43;26.33;100811.41;10372831;28;20034;-73
2022/03/29 08:45:07;;;;;;;4.00;0.88;;;;;;;15.55;25.26;100809.09;10373105;28;20046;-73
2022/03/29 08:50:09;;;;;;;1.88;0.60;;;;;;;15.18;26.42;100724.47;10372835;28;20164;-72
2022/03/29 08:55:10;;;;;;;1.48;0.50;;;;;;;15.68;26.07;100762.94;10372334;28;20053;-72
2022/03/29 09:00:11;;;;;;;1.55;0.60;;;;;;;16.47;26.10;100850.41;10372876;28;20060;-72
2022/03/29 09:05:20;;;;;;;4.80;0.90;;;;;;;16.66;25.80;100849.69;10370719;28;20038;-73
2022/03/29 09:10:44;;;;;;;2.03;0.73;;;;;;;16.63;25.32;100828.63;10363668;28;20445;-72
2022/03/29 09:15:45;;;;;;;4.47;1.00;;;;;;;16.65;25.56;100818.56;10341634;28;20057;-73
2022/03/29 09:20:47;;;;;;;5.10;1.02;;;;;;;16.62;25.46;100789.44;10357973;28;20149;-72
2022/03/29 09:25:48;;;;;;;3.25;0.82;;;;;;;16.57;25.86;100782.00;10367210;28;20049;-76
2022/03/29 09:30:53;;;;;;;3.13;0.77;;;;;;;16.77;24.87;100771.41;10375499;28;20502;-76
2022/03/29 09:35:58;;;;;;;1.58;0.57;;;;;;;16.39;24.73;100664.53;10379641;28;20518;-76
2022/03/29 09:41:01;;;;;;;8.15;1.15;;;;;;;17.03;24.53;100777.94;10379572;28;20088;-76
2022/03/29 09:46:03;;;;;;;3.40;0.80;;;;;;;16.86;24.16;100775.56;10379664;28;20042;-76
2022/03/29 09:51:10;;;;;;;4.80;0.80;;;;;;;17.02;22.93;100766.38;10364069;28;20057;-76
2022/03/29 09:56:12;;;;;;;6.88;1.40;;;;;;;16.08;23.89;100618.56;10356220;28;20053;-76
2022/03/29 10:01:23;;;;;;;3.13;0.88;;;;;;;16.89;23.49;100753.69;10378100;28;20525;-76
2022/03/29 10:06:24;;;;;;;2.80;0.77;;;;;;;17.49;25.04;100770.03;10378499;28;20042;-76
2022/03/29 10:11:27;;;;;;;2.05;0.77;;;;;;;17.00;24.23;100665.63;10345017;28;20402;-76
2022/03/29 10:16:28;;;;;;;3.25;0.80;;;;;;;17.56;24.55;100729.78;10337439;28;20057;-77
2022/03/29 10:21:29;;;;;;;2.25;0.88;;;;;;;17.80;24.14;100752.56;10337704;28;20518;-76
2022/03/29 10:26:31;;;;;;;1.48;0.57;;;;;;;17.97;24.28;100732.28;10336653;28;20120;-77
2022/03/29 10:31:48;;;;;;;5.65;2.72;;;;;;;18.19;23.72;100697.94;10335519;28;20077;-77
2022/03/29 10:37:07;;;;;;;2.67;1.02;;;;;;;18.44;22.36;100716.09;10336418;28;20042;-77
2022/03/29 10:42:25;;;;;;;1.98;0.90;;;;;;;17.98;23.03;100669.44;10336010;28;20049;-78
2022/03/29 10:47:28;;;;;;;2.03;0.73;;;;;;;18.25;23.57;100712.44;10335732;28;20447;-78
2022/03/29 10:52:36;;;;;;;2.35;1.00;;;;;;;17.96;23.98;100660.75;10336219;28;20042;-79
2022/03/29 10:57:36;;;;;;;2.55;0.93;;;;;;;18.31;23.24;100705.34;10338169;28;20549;-76
2022/03/29 11:02:58;;;;;;;3.55;1.40;;;;;;;17.56;23.43;100580.16;10373151;28;20164;-76
2022/03/29 11:08:11;;;;;;;3.20;1.42;;;;;;;17.99;23.01;100641.53;10334577;28;20046;-83
2022/03/29 11:13:24;;;;;;;3.07;1.33;;;;;;;17.62;24.35;100535.53;10334907;28;20090;-76
2022/03/29 11:18:31;;;;;;;4.57;1.20;;;;;;;18.55;23.31;100669.72;10337427;28;20340;-74
2022/03/29 11:23:41;;;;;;;10.32;1.80;;;;;;;18.29;23.18;100657.16;10337692;28;20045;-76
2022/03/29 11:28:51;;;;;;;4.10;1.30;;;;;;;17.98;22.92;100617.56;10370844;28;20125;-84
2022/03/29 11:33:55;;;;;;;5.22;1.50;;;;;;;18.56;24.38;100665.16;10357720;28;20052;-76
2022/03/29 11:38:56;;;;;;;9.57;1.20;;;;;;;18.55;23.88;100642.81;10352549;28;20049;-86
2022/03/29 11:44:03;;;;;;;5.18;1.80;;;;;;;18.69;23.92;100649.78;10361778;28;20053;-77
2022/03/29 11:49:04;;;;;;;3.97;1.75;;;;;;;18.33;22.92;100603.78;10359811;28;20076;-76
2022/03/29 11:54:05;;;;;;;6.45;1.15;;;;;;;18.69;23.26;100638.19;10359435;28;20088;-76
2022/03/29 11:59:14;;;;;;;3.33;1.23;;;;;;;18.39;22.95;100582.22;10359089;28;20041;-77
2022/03/29 12:04:15;;;;;;;3.63;1.38;;;;;;;18.64;23.61;100592.28;10353766;28;20137;-77
2022/03/29 12:09:24;;;;;;;5.60;1.40;;;;;;;18.83;23.19;100622.84;10357268;28;20573;-77
2022/03/29 12:14:26;;;;;;;4.82;1.40;;;;;;;18.68;23.51;100606.94;10358943;28;20518;-76
2022/03/29 12:19:28;;;;;;;2.90;1.08;;;;;;;18.49;22.79;100584.50;10355380;28;20054;-78
2022/03/29 12:24:43;;;;;;;4.03;1.20;;;;;;;18.35;22.59;100542.53;10354781;28;20137;-76
2022/03/29 12:29:52;;;;;;;3.00;1.48;;;;;;;18.00;23.41;100467.63;10346880;28;20453;-78
2022/03/29 12:34:59;;;;;;;3.00;1.20;;;;;;;18.47;22.88;100575.81;10353762;28;20041;-76
2022/03/29 12:40:10;;;;;;;2.10;0.80;;;;;;;18.59;23.03;100594.78;10352487;28;20046;-73
2022/03/29 12:45:11;;;;;;;3.70;1.60;;;;;;;18.51;23.92;100560.06;10370007;28;20048;-79
2022/03/29 12:50:13;;;;;;;5.18;1.10;;;;;;;18.46;23.96;100579.53;10378990;28;20064;-74
2022/03/29 12:55:19;;;;;;;3.53;1.00;;;;;;;18.34;23.72;100576.69;10383010;28;20405;-74
2022/03/29 13:00:20;;;;;;;9.98;4.13;;;;;;;17.73;23.72;100456.13;10363934;28;20556;-80
2022/03/29 13:05:23;;;;;;;9.68;2.20;;;;;;;18.35;23.31;100570.25;10378495;28;20034;-80
2022/03/29 13:10:36;;;;;;;7.20;1.60;;;;;;;18.09;23.23;100557.75;10385144;28;20465;-77
2022/03/29 13:16:10;;;;;;;4.68;1.77;;;;;;;17.97;24.18;100560.25;10386287;28;20038;-76
2022/03/29 13:21:28;;;;;;;26.45;2.38;;;;;;;16.99;24.13;100434.00;10387474;28;20062;-77
2022/03/29 13:26:29;;;;;;;3.50;1.30;;;;;;;17.76;24.58;100573.91;10388351;28;20038;-77
2022/03/29 13:31:31;;;;;;;8.48;1.50;;;;;;;17.64;24.53;100576.41;10367583;28;20107;-76
2022/03/29 13:36:32;;;;;;;7.60;1.80;;;;;;;17.22;25.23;100508.69;10382829;28;20091;-78
2022/03/29 13:41:34;;;;;;;4.05;1.58;;;;;;;16.56;24.99;100404.03;10381735;28;20141;-76
2022/03/29 13:46:34;;;;;;;4.47;1.50;;;;;;;17.05;25.45;100502.09;10388076;28;20541;-74
2022/03/29 13:51:35;;;;;;;8.88;2.55;;;;;;;17.19;25.99;100533.28;10387808;28;20054;-74
2022/03/29 13:56:37;;;;;;;5.40;1.88;;;;;;;16.88;25.67;100505.19;10388515;28;20629;-75
2022/03/29 14:01:38;;;;;;;7.25;2.08;;;;;;;17.00;26.06;100547.53;10376148;28;20050;-76
2022/03/29 14:06:39;;;;;;;4.50;1.48;;;;;;;16.40;26.10;100467.75;10382699;28;20038;-78
2022/03/29 14:11:40;;;;;;;14.82;2.35;;;;;;;16.86;26.33;100539.44;10380920;28;20057;-77
2022/03/29 14:16:41;;;;;;;9.43;2.15;;;;;;;16.56;26.11;100517.50;10366080;28;20042;-77
2022/03/29 14:21:49;;;;;;;10.40;3.50;;;;;;;16.50;26.50;100530.88;10389103;28;20059;-73
2022/03/29 14:26:50;;;;;;;5.93;2.97;;;;;;;16.13;26.87;100504.38;10381585;28;20073;-79
2022/03/29 14:31:51;;;;;;;6.10;3.50;;;;;;;15.49;27.24;100425.13;10371918;28;20072;-77
2022/03/29 14:36:52;;;;;;;28.40;2.85;;;;;;;16.00;27.01;100517.72;10384856;28;20092;-77
2022/03/29 14:41:52;;;;;;;9.85;2.50;;;;;;;15.48;27.31;100463.66;10386739;28;20045;-77
2022/03/29 14:46:57;;;;;;;11.07;2.90;;;;;;;15.05;27.73;100425.50;10385839;28;20045;-76
2022/03/29 14:51:58;;;;;;;;;;;;;;;15.52;28.47;100522.97;10365835;28;20095;-71
2022/03/29 14:56:59;;;;;;;14.85;3.25;;;;;;;14.92;28.66;100493.09;10361276;28;19967;-73
2022/03/29 15:01:59;;;;;;;8.43;1.98;;;;;;;13.78;29.28;100359.34;10354997;28;20391;-75
2022/03/29 15:07:00;;;;;;;7.00;1.50;;;;;;;13.72;29.51;100404.66;10353079;28;20042;-74
2022/03/29 15:12:01;;;;;;;4.10;1.50;;;;;;;14.01;30.38;100514.09;10344866;28;20046;-75
2022/03/29 15:17:03;;;;;;;15.73;2.13;;;;;;;12.05;31.18;100260.09;10353364;28;20045;-74
2022/03/29 15:22:05;;;;;;;15.57;2.42;;;;;;;12.33;32.51;100381.06;10353473;28;20062;-74
2022/03/29 15:27:06;;;;;;;5.63;1.90;;;;;;;11.76;33.31;100346.81;10346409;28;20173;-73
2022/03/29 15:32:07;;;;;;;7.07;1.55;;;;;;;12.41;33.85;100509.88;10364322;28;20525;-73
2022/03/29 15:37:09;;;;;;;3.95;1.20;;;;;;;12.14;33.99;100500.53;10364624;28;20057;-73
2022/03/29 15:42:12;;;;;;;11.75;1.38;;;;;;;10.92;34.84;100354.47;10358085;28;20066;-77
2022/03/29 15:47:14;;;;;;;12.05;2.42;;;;;;;10.51;35.76;100351.88;10363409;28;20128;-73
2022/03/29 15:52:15;;;;;;;40.83;3.33;;;;;;;11.17;36.06;100487.34;10353577;28;20540;-73
2022/03/29 15:57:16;;;;;;;15.38;2.30;;;;;;;10.62;36.15;100437.53;10359673;28;20398;-73
2022/03/29 16:02:18;;;;;;;12.27;2.03;;;;;;;10.69;36.38;100470.44;10362553;28;20046;-74
2022/03/29 16:07:18;;;;;;;17.83;2.58;;;;;;;10.62;36.95;100486.22;10355859;28;20077;-74
2022/03/29 16:12:19;;;;;;;6.03;1.67;;;;;;;10.63;36.83;100498.47;10355169;28;20136;-72
2022/03/29 16:17:21;;;;;;;6.82;1.42;;;;;;;9.60;37.29;100367.81;10362723;28;20104;-77
2022/03/29 16:22:22;;;;;;;7.38;1.20;;;;;;;9.10;37.42;100327.06;10350411;28;20061;-74
2022/03/29 16:27:24;;;;;;;2.95;1.00;;;;;;;10.07;37.78;100503.47;10352788;28;20418;-74
2022/03/29 16:32:28;;;;;;;6.47;1.03;;;;;;;10.01;38.14;100511.25;10350791;28;20057;-73
2022/03/29 16:37:29;;;;;;;9.48;1.20;;;;;;;9.79;38.04;100486.13;10347433;28;20525;-74
2022/03/29 16:42:30;;;;;;;24.50;1.50;;;;;;;8.94;38.28;100398.50;10351888;28;20375;-74
2022/03/29 16:47:31;;;;;;;6.55;1.00;;;;;;;7.94;38.70;100230.34;10327735;28;20050;-72
2022/03/29 16:52:32;;;;;;;1.80;0.77;;;;;;;9.29;39.00;100482.38;10331824;28;20064;-73
2022/03/29 16:57:33;;;;;;;2.53;0.85;;;;;;;9.24;39.60;100483.81;10331176;28;20050;-71
2022/03/29 17:02:34;;;;;;;5.68;0.90;;;;;;;9.21;40.03;100519.41;10331576;28;20038;-72
2022/03/29 17:07:35;;;;;;;7.80;1.00;;;;;;;9.09;40.20;100504.75;10342269;28;20053;-72
2022/03/29 17:12:36;;;;;;;3.25;1.00;;;;;;;8.76;40.16;100464.75;10366348;28;20042;-72
2022/03/29 17:17:39;;;;;;;3.20;0.82;;;;;;;8.61;40.19;100459.16;10370577;28;20406;-72
2022/03/29 17:22:40;;;;;;;2.13;0.82;;;;;;;8.64;40.09;100480.03;10370488;28;20057;-72
2022/03/29 17:27:41;;;;;;;5.85;0.95;;;;;;;8.22;40.44;100434.78;10370041;28;20042;-74
2022/03/29 17:32:41;;;;;;;2.83;1.00;;;;;;;8.60;40.75;100521.06;10364077;28;20041;-73
2022/03/29 17:37:44;;;;;;;5.88;0.93;;;;;;;8.44;40.79;100507.69;10371276;28;20049;-73
2022/03/29 17:42:45;;;;;;;6.00;1.00;;;;;;;8.20;41.17;100502.94;10371133;28;20464;-73
2022/03/29 17:47:46;;;;;;;6.05;1.60;;;;;;;8.06;41.14;100504.25;10371357;28;20066;-73
2022/03/29 17:52:47;;;;;;;6.80;0.90;;;;;;;7.27;41.92;100393.75;10376690;28;20132;-73
2022/03/29 17:57:48;;;;;;;5.95;1.10;;;;;;;6.73;41.91;100316.91;10379302;28;20038;-74
2022/03/29 18:02:49;;;;;;;3.65;1.20;;;;;;;6.90;42.16;100356.72;10362310;28;20037;-73
2022/03/29 18:07:50;;;;;;;5.93;1.25;;;;;;;7.84;42.52;100546.94;10358131;28;20498;-73
2022/03/29 18:12:51;;;;;;;2.50;0.98;;;;;;;7.76;42.44;100545.88;10351824;28;20049;-74
2022/03/29 18:17:52;;;;;;;5.63;1.20;;;;;;;7.70;42.58;100542.97;10376765;28;20030;-73
2022/03/29 18:23:02;;;;;;;4.38;1.00;;;;;;;6.32;42.03;100326.03;10351693;28;20414;-73
2022/03/29 18:28:04;;;;;;;4.07;1.13;;;;;;;6.74;42.34;100404.88;10353439;28;20042;-73
2022/03/29 18:33:05;;;;;;;3.47;1.05;;;;;;;7.45;42.45;100531.22;10374697;28;20095;-73
2022/03/29 18:38:10;;;;;;;2.60;1.00;;;;;;;6.33;42.39;100344.34;10361171;28;20038;-73
2022/03/29 18:43:11;;;;;;;;;;;;;;;7.58;42.26;100542.31;10356225;28;20052;-73
2022/03/29 18:48:11;;;;;;;2.30;0.80;;;;;;;6.59;41.89;100401.81;10376675;28;19917;-73
2022/03/29 18:53:13;;;;;;;4.43;1.00;;;;;;;7.37;42.51;100528.47;10355684;28;20116;-73
2022/03/29 18:58:13;;;;;;;3.78;0.93;;;;;;;6.92;42.76;100450.69;10355151;28;20088;-73
2022/03/29 19:03:14;;;;;;;6.35;0.90;;;;;;;7.04;42.26;100461.94;10353012;28;20034;-73
2022/03/29 19:08:15;;;;;;;3.92;1.00;;;;;;;7.43;41.65;100506.75;10357136;28;20041;-73
2022/03/29 19:13:17;;;;;;;5.78;1.50;;;;;;;7.18;42.16;100468.56;10355911;28;20109;-73
2022/03/29 19:18:18;;;;;;;4.35;1.15;;;;;;;7.12;41.92;100463.84;10352900;28;20042;-75
2022/03/29 19:23:19;;;;;;;5.13;1.30;;;;;;;6.98;42.03;100457.22;10370851;28;20038;-74
2022/03/29 19:28:22;;;;;;;11.05;1.60;;;;;;;7.32;42.81;100505.94;10364227;28;20498;-74
2022/03/29 19:33:23;;;;;;;3.97;1.20;;;;;;;5.96;42.36;100288.03;10344868;28;20050;-73
2022/03/29 19:38:24;;;;;;;8.27;1.30;;;;;;;6.27;42.65;100366.00;10334324;28;20050;-73
2022/03/29 19:43:46;;;;;;;5.22;1.50;;;;;;;6.38;43.31;100380.88;10334826;28;20518;-73
2022/03/29 19:48:46;;;;;;;7.75;1.50;;;;;;;6.69;42.75;100434.31;10349870;28;20046;-74
2022/03/29 19:53:48;;;;;;;12.07;1.23;;;;;;;7.08;42.67;100474.69;10333529;28;20038;-73
2022/03/29 19:58:49;;;;;;;7.82;1.20;;;;;;;5.72;42.40;100249.72;10348462;28;20399;-74
2022/03/29 20:03:50;;;;;;;5.10;1.33;;;;;;;6.84;42.44;100438.19;10332993;28;20042;-74
2022/03/29 20:08:50;;;;;;;3.40;0.77;;;;;;;7.06;42.26;100489.03;10331616;28;20045;-74
2022/03/29 20:13:52;;;;;;;2.75;0.90;;;;;;;5.88;42.72;100293.94;10332333;28;20391;-74
2022/03/29 20:18:55;;;;;;;4.40;1.67;;;;;;;6.82;42.66;100431.38;10332743;28;20502;-73
2022/03/29 20:23:56;;;;;;;7.72;1.17;;;;;;;6.79;42.43;100448.34;10333401;28;20054;-74
2022/03/29 20:28:57;;;;;;;8.38;1.50;;;;;;;6.25;42.41;100357.41;10332586;28;20041;-74
2022/03/29 20:33:58;;;;;;;3.72;0.90;;;;;;;6.79;42.98;100458.06;10331673;28;20046;-74
2022/03/29 20:38:59;;;;;;;2.97;1.15;;;;;;;6.80;42.71;100471.13;10349590;28;20121;-74
2022/03/29 20:44:00;;;;;;;5.25;1.38;;;;;;;6.75;43.04;100454.03;10341687;28;20391;-74
2022/03/29 20:49:02;;;;;;;3.42;1.30;;;;;;;6.51;42.93;100433.34;10332129;28;20141;-73
2022/03/29 20:54:05;;;;;;;4.35;1.27;;;;;;;6.26;43.01;100396.00;10346498;28;20046;-73
2022/03/29 20:59:06;;;;;;;7.32;1.52;;;;;;;5.94;43.62;100357.53;10332324;28;20050;-74
2022/03/29 21:04:08;;;;;;;7.53;2.03;;;;;;;6.09;43.89;100415.16;10331742;28;20461;-74
2022/03/29 21:09:12;;;;;;;22.08;9.43;;;;;;;4.09;44.33;100079.81;10332100;28;20061;-74
2022/03/29 21:14:13;;;;;;;20.75;8.27;;;;;;;5.56;44.27;100339.00;10331334;28;20042;-74
2022/03/29 21:19:14;;;;;;;8.18;2.65;;;;;;;5.54;44.12;100375.22;10331546;28;20058;-74
2022/03/29 21:24:16;;;;;;;5.35;2.10;;;;;;;4.38;44.49;100178.22;10331167;28;20077;-74
2022/03/29 21:29:17;;;;;;;4.38;2.30;;;;;;;4.99;44.80;100296.56;10340401;28;20104;-73
2022/03/29 21:34:18;;;;;;;3.65;1.50;;;;;;;5.01;45.41;100332.31;10339032;28;20495;-73
2022/03/29 21:39:19;;;;;;;5.97;1.40;;;;;;;5.66;44.97;100426.84;10339629;28;20053;-73
2022/03/29 21:44:20;;;;;;;5.43;1.42;;;;;;;4.85;44.98;100284.59;10339474;28;20042;-73
2022/03/29 21:49:20;;;;;;;5.40;1.70;;;;;;;5.63;45.56;100440.28;10338579;28;20042;-74
2022/03/29 21:54:21;;;;;;;5.93;2.10;;;;;;;4.33;46.61;100250.41;10338980;28;20077;-73
2022/03/29 21:59:23;;;;;;;6.88;1.95;;;;;;;4.68;47.70;100367.63;10338944;28;20041;-73
2022/03/29 22:04:24;;;;;;;14.88;6.88;;;;;;;4.40;47.37;100329.66;10337601;28;20129;-73
2022/03/29 22:09:25;;;;;;;7.78;3.08;;;;;;;4.90;47.07;100400.84;10353236;28;20133;-74
2022/03/29 22:14:25;;;;;;;16.42;3.15;;;;;;;5.01;48.33;100432.38;10338197;28;20057;-74
2022/03/29 22:19:26;;;;;;;16.73;3.33;;;;;;;4.51;49.02;100361.13;10337234;28;20541;-74
2022/03/29 22:24:28;;;;;;;12.30;2.45;;;;;;;4.77;49.27;100408.94;10337382;28;20057;-74
2022/03/29 22:29:29;;;;;;;12.80;2.92;;;;;;;4.50;48.33;100325.28;10337264;28;20042;-74
2022/03/29 22:34:30;;;;;;;8.25;2.30;;;;;;;5.04;48.70;100411.03;10337275;28;20438;-74
2022/03/29 22:39:31;;;;;;;9.43;2.00;;;;;;;5.12;49.04;100394.59;10334649;28;20042;-74
2022/03/29 22:44:31;;;;;;;9.93;2.22;;;;;;;3.76;49.45;100228.06;10336310;28;20038;-74
2022/03/29 22:49:33;;;;;;;12.98;2.03;;;;;;;2.85;49.06;100063.19;10336526;28;20039;-73
2022/03/29 22:54:35;;;;;;;97.53;35.50;;;;;;;4.02;49.74;100269.75;10336328;28;20049;-74
2022/03/29 22:59:36;;;;;;;43.67;12.25;;;;;;;4.27;49.79;100357.94;10336928;28;20072;-74
2022/03/29 23:04:37;;;;;;;16.23;5.13;;;;;;;4.09;50.52;100316.41;10335811;28;20042;-73
2022/03/29 23:09:38;;;;;;;7.75;2.75;;;;;;;4.49;50.97;100396.44;10335789;28;20085;-73
2022/03/29 23:14:39;;;;;;;13.52;3.08;;;;;;;4.15;51.29;100372.09;10335648;28;20046;-73
2022/03/29 23:19:42;;;;;;;4.55;1.80;;;;;;;4.30;51.56;100405.00;10335243;28;20511;-74
2022/03/29 23:24:43;;;;;;;6.22;2.60;;;;;;;4.31;51.67;100393.53;10335058;28;20553;-74